createdAt,value
2019-01-19T00:01:49.075Z,9.26
2019-01-19T00:04:29.581Z,9.20
2019-01-19T00:07:06.968Z,8.90
2019-01-19T00:09:43.972Z,8.35
2019-01-19T00:12:37.886Z,7.75
2019-01-19T00:15:09.326Z,8.77
2019-01-19T00:17:55.833Z,9.11
2019-01-19T00:20:30.346Z,9.25
2019-01-19T00:23:10.955Z,8.97
2019-01-19T00:25:54.315Z,8.38
2019-01-19T00:28:34.787Z,8.70
2019-01-19T00:34:13.920Z,8.85
2019-01-19T00:36:45.352Z,8.37
2019-01-19T00:39:22.340Z,8.85
2019-01-19T00:42:02.667Z,9.28
2019-01-19T00:44:52.227Z,9.06
2019-01-19T00:47:46.418Z,8.93
2019-01-19T00:50:35.741Z,8.58
2019-01-19T00:53:16.167Z,8.57
2019-01-19T00:55:53.272Z,8.20
2019-01-19T00:58:27.543Z,8.93
2019-01-19T01:01:07.724Z,9.00
2019-01-19T01:04:05.033Z,8.46
2019-01-19T01:06:51.378Z,8.79
2019-01-19T01:09:22.803Z,8.42
2019-01-19T01:11:57.176Z,9.17
2019-01-19T01:14:43.716Z,9.10
2019-01-19T01:17:17.947Z,8.60
2019-01-19T01:19:52.073Z,8.01
2019-01-19T01:22:29.559Z,8.38
2019-01-19T01:25:04.144Z,8.04
2019-01-19T01:27:44.729Z,8.40
2019-01-19T01:30:31.344Z,8.35
2019-01-19T01:33:11.616Z,8.49
2019-01-19T01:36:07.247Z,8.22
2019-01-19T01:38:44.404Z,7.92
2019-01-19T01:41:21.633Z,8.53
2019-01-19T01:44:16.806Z,8.51
2019-01-19T01:46:50.813Z,8.01
2019-01-19T01:49:28.270Z,8.41
2019-01-19T01:52:20.583Z,8.64
2019-01-19T01:54:52.010Z,8.20
2019-01-19T01:57:23.622Z,8.23
2019-01-19T02:00:07.168Z,8.60
2019-01-19T02:02:47.325Z,8.56
2019-01-19T02:05:40.448Z,8.39
2019-01-19T02:08:15.545Z,8.49
2019-01-19T02:10:47.021Z,8.72
2019-01-19T02:13:30.541Z,8.25
2019-01-19T02:16:07.909Z,7.94
2019-01-19T02:18:39.324Z,8.31
2019-01-19T02:21:39.361Z,8.03
2019-01-19T02:24:13.947Z,9.05
2019-01-19T02:27:02.156Z,8.28
2019-01-19T02:29:49.886Z,8.02
2019-01-19T02:32:36.206Z,8.15
2019-01-19T02:35:19.514Z,8.07
2019-01-19T02:38:00.029Z,7.75
2019-01-19T02:40:48.794Z,7.68
2019-01-19T02:43:20.279Z,7.65
2019-01-19T02:45:54.404Z,7.54
2019-01-19T02:48:31.619Z,7.52
2019-01-19T02:51:03.114Z,7.06
2019-01-19T02:53:49.652Z,7.12
2019-01-19T02:56:38.987Z,6.67
2019-01-19T02:59:13.543Z,6.89
2019-01-19T03:01:44.992Z,7.62
2019-01-19T03:04:22.307Z,6.72
2019-01-19T03:07:02.594Z,6.60
2019-01-19T03:10:05.990Z,6.30
2019-01-19T03:12:43.330Z,6.63
2019-01-19T03:15:14.752Z,7.30
2019-01-19T03:17:55.161Z,7.63
2019-01-19T03:20:38.343Z,8.03
2019-01-19T03:23:41.458Z,7.76
2019-01-19T03:26:12.902Z,7.50
2019-01-19T03:29:06.872Z,7.06
2019-01-19T03:31:46.798Z,6.78
2019-01-19T03:34:18.233Z,6.96
2019-01-19T03:36:55.639Z,7.05
2019-01-19T03:40:14.919Z,7.49
2019-01-19T03:43:10.651Z,6.44
2019-01-19T03:46:01.553Z,6.84
2019-01-19T03:48:48.044Z,6.80
2019-01-19T03:51:25.128Z,7.14
2019-01-19T03:54:08.402Z,7.25
2019-01-19T03:56:51.904Z,7.62
2019-01-19T03:59:35.252Z,6.79
2019-01-19T04:02:27.935Z,7.43
2019-01-19T04:05:08.369Z,6.42
2019-01-19T04:07:39.825Z,6.54
2019-01-19T04:10:11.247Z,6.23
2019-01-19T04:12:45.265Z,6.76
2019-01-19T04:15:43.829Z,6.22
2019-01-19T04:18:17.780Z,5.69
2019-01-19T04:21:22.592Z,6.44
2019-01-19T04:23:56.726Z,7.25
2019-01-19T04:26:28.162Z,6.95
2019-01-19T04:28:56.694Z,7.15
2019-01-19T04:31:24.953Z,7.02
2019-01-19T04:33:53.368Z,6.54
2019-01-19T04:36:21.961Z,7.02
2019-01-19T04:38:50.390Z,6.83
2019-01-19T04:41:18.638Z,6.78
2019-01-19T04:43:46.932Z,7.50
2019-01-19T04:46:15.181Z,6.91
2019-01-19T04:48:43.812Z,7.02
2019-01-19T04:51:12.173Z,7.06
2019-01-19T04:53:40.445Z,6.27
2019-01-19T04:56:08.703Z,6.94
2019-01-19T04:58:36.947Z,7.19
2019-01-19T05:01:05.352Z,6.63
2019-01-19T05:03:33.748Z,7.26
2019-01-19T05:06:02.011Z,7.24
2019-01-19T05:08:30.291Z,7.44
2019-01-19T05:10:58.575Z,7.51
2019-01-19T05:13:26.850Z,7.15
2019-01-19T05:15:55.111Z,7.16
2019-01-19T05:18:23.763Z,6.78
2019-01-19T05:20:52.083Z,7.58
2019-01-19T05:23:20.423Z,7.46
2019-01-19T05:25:48.751Z,8.19
2019-01-19T05:28:17.049Z,7.98
2019-01-19T05:30:45.300Z,7.30
2019-01-19T05:33:13.558Z,7.53
2019-01-19T05:35:41.835Z,7.63
2019-01-19T05:38:10.111Z,8.03
2019-01-19T05:40:38.448Z,7.38
2019-01-19T05:43:06.794Z,7.77
2019-01-19T05:45:35.062Z,7.81
2019-01-19T05:48:03.335Z,8.42
2019-01-19T05:50:31.592Z,8.35
2019-01-19T05:52:59.860Z,8.05
2019-01-19T05:55:28.133Z,7.66
2019-01-19T05:57:56.397Z,7.40
2019-01-19T06:00:26.926Z,7.34
2019-01-19T06:02:55.178Z,7.31
2019-01-19T06:05:23.449Z,6.83
2019-01-19T06:07:51.692Z,7.19
2019-01-19T06:10:19.965Z,7.14
2019-01-19T06:12:48.213Z,7.80
2019-01-19T06:15:16.781Z,7.06
2019-01-19T06:17:45.032Z,7.52
2019-01-19T06:20:17.041Z,7.14
2019-01-19T06:22:45.711Z,7.14
2019-01-19T06:25:16.991Z,6.75
2019-01-19T06:27:45.327Z,6.88
2019-01-19T06:30:21.863Z,7.55
2019-01-19T06:32:50.254Z,6.95
2019-01-19T06:35:18.829Z,6.92
2019-01-19T06:37:47.204Z,6.90
2019-01-19T06:40:17.583Z,7.16
2019-01-19T06:42:46.006Z,7.18
2019-01-19T06:45:19.266Z,7.35
2019-01-19T06:47:47.557Z,7.22
2019-01-19T06:50:16.850Z,6.82
2019-01-19T06:52:45.153Z,7.40
2019-01-19T06:55:16.051Z,7.47
2019-01-19T06:57:44.313Z,7.30
2019-01-19T07:00:17.636Z,7.47
2019-01-19T07:02:45.970Z,7.19
2019-01-19T07:05:14.354Z,7.45
2019-01-19T07:07:42.682Z,7.21
2019-01-19T07:10:13.730Z,7.33
2019-01-19T07:12:41.981Z,7.13
2019-01-19T07:15:11.979Z,6.72
2019-01-19T07:17:40.337Z,5.99
2019-01-19T07:20:11.590Z,6.24
2019-01-19T07:22:39.854Z,6.60
2019-01-19T07:25:08.199Z,6.32
2019-01-19T07:27:36.447Z,5.74
2019-01-19T07:30:07.928Z,5.47
2019-01-19T07:32:36.174Z,5.74
2019-01-19T07:35:04.687Z,5.90
2019-01-19T07:37:32.959Z,5.53
2019-01-19T07:40:01.216Z,5.71
2019-01-19T07:42:29.475Z,5.41
2019-01-19T07:44:57.738Z,5.55
2019-01-19T07:47:26.264Z,5.61
2019-01-19T07:49:54.527Z,5.39
2019-01-19T07:52:22.766Z,5.72
2019-01-19T07:54:51.053Z,6.02
2019-01-19T07:57:19.288Z,6.21
2019-01-19T07:59:47.566Z,5.90
2019-01-19T08:02:15.974Z,6.03
2019-01-19T08:04:44.231Z,5.93
2019-01-19T08:07:17.275Z,6.54
2019-01-19T08:09:42.475Z,6.54
2019-01-19T08:12:10.744Z,6.06
2019-01-19T08:14:38.998Z,6.16
2019-01-19T08:17:07.277Z,6.37
2019-01-19T08:19:35.537Z,6.59
2019-01-19T08:22:03.865Z,6.07
2019-01-19T08:24:32.127Z,6.08
2019-01-19T08:27:00.525Z,6.92
2019-01-19T08:29:28.824Z,6.93
2019-01-19T08:31:57.120Z,6.56
2019-01-19T08:34:25.465Z,6.68
2019-01-19T08:36:53.739Z,6.40
2019-01-19T08:39:22.028Z,6.50
2019-01-19T08:41:50.296Z,6.80
2019-01-19T08:44:18.561Z,7.11
2019-01-19T08:46:46.816Z,6.87
2019-01-19T08:49:15.070Z,8.03
2019-01-19T08:51:43.465Z,7.61
2019-01-19T08:54:11.739Z,7.18
2019-01-19T08:56:40.013Z,7.69
2019-01-19T08:59:08.270Z,8.55
2019-01-19T09:01:36.541Z,7.77
2019-01-19T09:04:04.998Z,8.22
2019-01-19T09:06:33.277Z,9.08
2019-01-19T09:09:01.564Z,8.84
2019-01-19T09:11:29.827Z,8.66
2019-01-19T09:13:58.198Z,9.43
2019-01-19T09:16:26.527Z,8.80
2019-01-19T09:18:58.123Z,9.17
2019-01-19T09:21:26.416Z,9.18
2019-01-19T09:23:58.117Z,9.35
2019-01-19T09:26:26.481Z,8.99
2019-01-19T09:28:54.767Z,8.84
2019-01-19T09:31:23.085Z,8.49
2019-01-19T09:33:51.344Z,8.74
2019-01-19T09:36:19.714Z,9.43
2019-01-19T09:38:47.960Z,9.18
2019-01-19T09:41:16.293Z,9.14
2019-01-19T09:43:44.546Z,8.83
2019-01-19T09:46:12.868Z,8.91
2019-01-19T09:48:41.203Z,9.48
2019-01-19T09:51:09.524Z,9.43
2019-01-19T09:53:37.873Z,9.58
2019-01-19T09:56:06.233Z,10.34
2019-01-19T09:58:34.511Z,10.14
2019-01-19T10:01:02.760Z,10.64
2019-01-19T10:03:31.046Z,11.07
2019-01-19T10:05:59.336Z,11.56
2019-01-19T10:08:27.588Z,11.37
2019-01-19T10:10:55.865Z,11.26
2019-01-19T10:13:24.596Z,10.25
2019-01-19T10:15:52.930Z,11.87
2019-01-19T10:18:21.539Z,11.30
2019-01-19T10:20:49.834Z,11.17
2019-01-19T10:23:18.163Z,11.07
2019-01-19T10:25:46.483Z,10.94
2019-01-19T10:28:14.765Z,10.07
2019-01-19T10:30:43.041Z,10.61
2019-01-19T10:33:11.341Z,9.74
2019-01-19T10:35:39.728Z,10.22
2019-01-19T10:38:07.975Z,10.23
2019-01-19T10:40:36.260Z,9.98
2019-01-19T10:43:04.595Z,10.66
2019-01-19T10:45:32.959Z,11.09
2019-01-19T10:48:01.283Z,11.21
2019-01-19T10:50:29.572Z,11.02
2019-01-19T10:52:57.839Z,10.88
2019-01-19T10:55:26.101Z,10.61
2019-01-19T10:57:54.469Z,9.85
2019-01-19T11:00:30.578Z,9.70
2019-01-19T11:02:59.392Z,9.88
2019-01-19T11:05:28.550Z,9.02
2019-01-19T11:08:03.575Z,9.21
2019-01-19T11:10:30.458Z,9.98
2019-01-19T11:12:58.851Z,9.56
2019-01-19T11:15:27.109Z,10.12
2019-01-19T11:17:55.395Z,10.36
2019-01-19T11:20:26.456Z,10.07
2019-01-19T11:22:55.568Z,10.26
2019-01-19T11:25:23.905Z,10.44
2019-01-19T11:27:52.229Z,10.27
2019-01-19T11:30:28.416Z,10.57
2019-01-19T11:32:56.662Z,10.66
2019-01-19T11:35:25.009Z,10.85
2019-01-19T11:37:53.332Z,9.65
2019-01-19T11:40:36.122Z,10.97
2019-01-19T11:43:05.940Z,10.41
2019-01-19T11:45:34.222Z,10.75
2019-01-19T11:48:02.590Z,10.82
2019-01-19T11:50:30.910Z,10.83
2019-01-19T11:52:59.219Z,11.64
2019-01-19T11:55:27.502Z,12.06
2019-01-19T11:57:58.897Z,12.63
2019-01-19T12:00:35.328Z,12.61
2019-01-19T12:03:04.036Z,13.76
2019-01-19T12:05:32.290Z,13.84
2019-01-19T12:08:08.864Z,14.07
2019-01-19T12:10:37.327Z,14.07
2019-01-19T12:13:05.597Z,14.56
2019-01-19T12:15:33.906Z,15.97
2019-01-19T12:18:02.183Z,17.67
2019-01-19T12:20:35.363Z,17.86
2019-01-19T12:23:03.797Z,19.02
2019-01-19T12:25:32.041Z,18.97
2019-01-19T12:28:00.331Z,18.83
2019-01-19T12:30:30.940Z,18.70
2019-01-19T12:32:59.216Z,19.58
2019-01-19T12:35:27.962Z,19.70
2019-01-19T12:37:57.291Z,20.67
2019-01-19T12:40:27.523Z,19.97
2019-01-19T12:43:04.907Z,20.39
2019-01-19T12:45:36.370Z,18.91
2019-01-19T12:48:04.910Z,18.68
2019-01-19T12:50:33.192Z,19.62
2019-01-19T12:53:01.486Z,19.83
2019-01-19T12:55:29.764Z,20.41
2019-01-19T12:57:58.040Z,21.65
2019-01-19T13:00:28.073Z,20.95
2019-01-19T13:02:56.872Z,20.61
2019-01-19T13:05:33.071Z,21.79
2019-01-19T13:08:01.926Z,20.89
2019-01-19T13:10:33.371Z,21.06
2019-01-19T13:13:02.559Z,19.34
2019-01-19T13:15:49.341Z,20.53
2019-01-19T13:18:47.269Z,21.48
2019-01-19T13:21:41.247Z,20.32
2019-01-19T13:24:12.695Z,18.07
2019-01-19T13:26:45.158Z,17.51
2019-01-19T13:29:16.636Z,16.48
2019-01-19T13:31:48.079Z,16.47
2019-01-19T13:34:39.905Z,16.11
2019-01-19T13:37:20.368Z,16.11
2019-01-19T13:40:07.028Z,15.31
2019-01-19T13:43:08.607Z,15.24
2019-01-19T13:46:00.347Z,17.09
2019-01-19T13:49:04.475Z,17.04
2019-01-19T13:51:39.228Z,15.75
2019-01-19T13:54:28.457Z,15.19
2019-01-19T13:57:02.857Z,15.35
2019-01-19T13:59:39.815Z,16.19
2019-01-19T14:02:20.086Z,17.73
2019-01-19T14:05:07.708Z,17.51
2019-01-19T14:07:39.157Z,16.71
2019-01-19T14:10:28.158Z,15.16
2019-01-19T14:13:19.580Z,14.71
2019-01-19T14:15:54.158Z,15.02
2019-01-19T14:18:42.400Z,14.19
2019-01-19T14:21:31.796Z,14.50
2019-01-19T14:24:24.636Z,13.25
2019-01-19T14:27:16.936Z,13.30
2019-01-19T14:30:21.925Z,12.89
2019-01-19T14:33:05.161Z,13.37
2019-01-19T14:35:36.631Z,13.26
2019-01-19T14:38:38.575Z,12.53
2019-01-19T14:41:32.623Z,11.54
2019-01-19T14:44:19.074Z,11.57
2019-01-19T14:46:56.563Z,11.61
2019-01-19T14:49:53.336Z,11.83
2019-01-19T14:52:40.015Z,11.33
2019-01-19T14:55:26.174Z,12.37
2019-01-19T14:58:09.318Z,11.68
2019-01-19T15:00:55.726Z,11.93
2019-01-19T15:03:45.136Z,12.19
2019-01-19T15:06:25.458Z,11.72
2019-01-19T15:09:13.592Z,11.47
2019-01-19T15:11:45.064Z,11.79
2019-01-19T15:14:26.058Z,11.78
2019-01-19T15:17:15.360Z,11.59
2019-01-19T15:19:52.310Z,10.76
2019-01-19T15:22:26.616Z,10.74
2019-01-19T15:25:14.681Z,11.05
2019-01-19T15:27:54.822Z,11.40
2019-01-19T15:30:46.782Z,11.18
2019-01-19T15:33:39.136Z,11.17
2019-01-19T15:36:10.626Z,10.99
2019-01-19T15:38:42.033Z,10.00
2019-01-19T15:41:22.393Z,10.51
2019-01-19T15:44:06.191Z,10.67
2019-01-19T15:46:55.552Z,10.75
2019-01-19T15:49:36.050Z,10.81
2019-01-19T15:52:09.972Z,10.57
2019-01-19T15:54:41.418Z,11.16
2019-01-19T15:57:21.670Z,11.50
2019-01-19T16:00:12.446Z,11.29
2019-01-19T16:02:44.259Z,10.10
2019-01-19T16:05:27.479Z,9.16
2019-01-19T16:08:07.227Z,8.78
2019-01-19T16:10:41.567Z,10.23
2019-01-19T16:13:24.794Z,9.66
2019-01-19T16:16:20.386Z,10.20
2019-01-19T16:19:09.991Z,10.47
2019-01-19T16:21:41.431Z,10.45
2019-01-19T16:24:27.663Z,10.66
2019-01-19T16:27:02.066Z,10.42
2019-01-19T16:29:48.722Z,9.94
2019-01-19T16:32:36.546Z,9.89
2019-01-19T16:35:29.038Z,9.94
2019-01-19T16:38:06.094Z,10.14
2019-01-19T16:40:58.130Z,9.68
2019-01-19T16:43:32.334Z,10.16
2019-01-19T16:46:09.228Z,9.40
2019-01-19T16:48:49.677Z,9.90
2019-01-19T16:51:33.071Z,9.17
2019-01-19T16:54:16.737Z,8.70
2019-01-19T16:56:53.694Z,9.64
2019-01-19T16:59:25.190Z,10.66
2019-01-19T17:01:59.299Z,10.18
2019-01-19T17:04:42.903Z,9.54
2019-01-19T17:07:36.637Z,9.77
2019-01-19T17:10:10.716Z,9.93
2019-01-19T17:12:57.171Z,9.23
2019-01-19T17:15:43.720Z,9.63
2019-01-19T17:18:15.167Z,9.25
2019-01-19T17:20:55.491Z,9.32
2019-01-19T17:23:29.745Z,9.32
2019-01-19T17:26:16.261Z,9.41
2019-01-19T17:28:56.699Z,9.94
2019-01-19T17:31:33.999Z,10.10
2019-01-19T17:34:40.261Z,10.32
2019-01-19T17:37:14.124Z,10.32
2019-01-19T17:39:54.416Z,9.76
2019-01-19T17:42:25.877Z,9.93
2019-01-19T17:45:15.656Z,10.22
2019-01-19T17:47:59.087Z,9.38
2019-01-19T17:50:39.652Z,9.24
2019-01-19T17:53:41.492Z,9.49
2019-01-19T17:56:24.966Z,8.54
2019-01-19T17:59:08.161Z,9.38
2019-01-19T18:01:48.271Z,8.60
2019-01-19T18:04:31.740Z,8.81
2019-01-19T18:07:27.337Z,8.35
2019-01-19T18:10:32.045Z,8.25
2019-01-19T18:13:09.229Z,8.79
2019-01-19T18:15:56.446Z,8.31
2019-01-19T18:18:30.628Z,8.74
2019-01-19T18:21:08.029Z,9.42
2019-01-19T18:23:54.544Z,8.26
2019-01-19T18:26:31.756Z,8.20
2019-01-19T18:29:12.145Z,8.32
2019-01-19T18:31:52.431Z,8.06
2019-01-19T18:34:28.089Z,8.15
2019-01-19T18:37:26.206Z,7.87
2019-01-19T18:40:00.678Z,7.36
2019-01-19T18:42:44.217Z,7.09
2019-01-19T18:45:18.463Z,7.29
2019-01-19T18:47:49.969Z,7.26
2019-01-19T18:50:27.409Z,7.71
2019-01-19T18:53:17.009Z,8.57
2019-01-19T18:56:05.243Z,8.82
2019-01-19T18:58:55.832Z,8.50
2019-01-19T19:01:27.267Z,8.11
2019-01-19T19:04:07.400Z,8.00
2019-01-19T19:06:53.211Z,8.08
2019-01-19T19:09:39.912Z,8.80
2019-01-19T19:12:23.523Z,9.12
2019-01-19T19:15:11.401Z,8.64
2019-01-19T19:17:45.422Z,8.66
2019-01-19T19:20:22.306Z,8.80
2019-01-19T19:23:05.558Z,8.70
2019-01-19T19:25:37.009Z,7.74
2019-01-19T19:28:17.464Z,6.72
2019-01-19T19:31:04.076Z,6.29
2019-01-19T19:33:47.651Z,6.54
2019-01-19T19:36:46.136Z,7.30
2019-01-19T19:39:20.306Z,6.08
2019-01-19T19:41:57.663Z,5.99
2019-01-19T19:44:44.047Z,6.85
2019-01-19T19:47:18.422Z,6.58
2019-01-19T19:50:09.507Z,6.50
2019-01-19T19:52:37.829Z,6.78
2019-01-19T19:55:05.085Z,7.93
2019-01-19T19:57:33.454Z,8.05
2019-01-19T20:00:01.732Z,8.14
2019-01-19T20:02:30.081Z,7.42
2019-01-19T20:04:58.408Z,7.96
2019-01-19T20:07:26.672Z,7.94
2019-01-19T20:09:54.951Z,7.54
2019-01-19T20:12:23.235Z,6.76
2019-01-19T20:14:51.498Z,5.95
2019-01-19T20:17:19.929Z,7.26
2019-01-19T20:19:48.181Z,6.80
2019-01-19T20:22:16.461Z,7.75
2019-01-19T20:24:44.758Z,6.88
2019-01-19T20:27:13.032Z,6.62
2019-01-19T20:29:41.425Z,6.15
2019-01-19T20:32:09.687Z,5.41
2019-01-19T20:34:37.956Z,5.42
2019-01-19T20:37:06.244Z,5.20
2019-01-19T20:39:34.485Z,6.42
2019-01-19T20:42:02.781Z,6.27
2019-01-19T20:44:31.040Z,5.52
2019-01-19T20:46:59.306Z,5.31
2019-01-19T20:49:27.579Z,5.31
2019-01-19T20:51:55.918Z,6.53
2019-01-19T20:54:24.218Z,6.43
2019-01-19T20:56:52.478Z,5.49
2019-01-19T20:59:23.438Z,6.09
2019-01-19T21:01:51.811Z,6.80
2019-01-19T21:04:20.071Z,5.38
2019-01-19T21:06:48.379Z,5.03
2019-01-19T21:09:16.633Z,5.05
2019-01-19T21:11:44.967Z,5.29
2019-01-19T21:14:13.258Z,6.16
2019-01-19T21:16:41.544Z,6.36
2019-01-19T21:19:09.968Z,6.61
2019-01-19T21:21:39.070Z,6.10
2019-01-19T21:24:07.359Z,6.81
2019-01-19T21:26:35.680Z,6.08
2019-01-19T21:29:04.176Z,6.79
2019-01-19T21:31:32.452Z,7.03
2019-01-19T21:34:00.882Z,6.12
2019-01-19T21:36:29.293Z,4.68
2019-01-19T21:38:57.652Z,6.14
2019-01-19T21:41:25.940Z,6.42
2019-01-19T21:43:54.263Z,6.07
2019-01-19T21:46:22.599Z,6.17
2019-01-19T21:48:51.653Z,6.36
2019-01-19T21:51:21.161Z,6.40
2019-01-19T21:53:49.457Z,6.50
2019-01-19T21:56:17.749Z,6.84
2019-01-19T21:58:47.538Z,5.31
2019-01-19T22:01:18.138Z,4.77
2019-01-19T22:03:46.415Z,6.18
2019-01-19T22:06:15.327Z,5.00
2019-01-19T22:08:43.600Z,4.98
2019-01-19T22:11:11.863Z,5.40
2019-01-19T22:13:40.124Z,4.81
2019-01-19T22:16:08.397Z,5.04
2019-01-19T22:18:36.660Z,4.59
2019-01-19T22:21:05.059Z,4.51
2019-01-19T22:23:34.875Z,3.83
2019-01-19T22:26:03.152Z,4.01
2019-01-19T22:28:31.425Z,5.16
2019-01-19T22:30:59.738Z,4.28
2019-01-19T22:33:28.290Z,5.42
2019-01-19T22:35:58.707Z,6.08
2019-01-19T22:38:26.962Z,5.67
2019-01-19T22:40:55.330Z,5.40
2019-01-19T22:43:27.460Z,4.77
2019-01-19T22:45:55.726Z,5.66
2019-01-19T22:48:23.968Z,6.16
2019-01-19T22:50:52.281Z,6.30
2019-01-19T22:53:20.571Z,6.35
2019-01-19T22:55:48.868Z,6.19
2019-01-19T22:58:17.212Z,5.92
2019-01-19T23:00:59.498Z,5.73
2019-01-19T23:03:29.328Z,4.40
2019-01-19T23:05:57.625Z,4.15
2019-01-19T23:08:25.929Z,3.82
2019-01-19T23:11:01.359Z,4.18
2019-01-19T23:13:27.518Z,3.73
2019-01-19T23:15:55.838Z,5.20
2019-01-19T23:18:24.093Z,3.49
2019-01-19T23:20:52.413Z,5.32
2019-01-19T23:23:20.672Z,5.38
2019-01-19T23:25:48.925Z,5.62
2019-01-19T23:28:17.188Z,5.51
2019-01-19T23:30:45.452Z,6.43
2019-01-19T23:33:13.730Z,5.97
2019-01-19T23:35:42.142Z,6.18
2019-01-19T23:38:10.435Z,5.92
2019-01-19T23:40:38.683Z,5.56
2019-01-19T23:43:07.104Z,5.85
2019-01-19T23:45:35.413Z,5.96
2019-01-19T23:48:03.685Z,5.53
2019-01-19T23:50:32.074Z,5.91
2019-01-19T23:53:00.352Z,4.54
2019-01-19T23:55:28.633Z,5.32
2019-01-19T23:57:56.955Z,4.48
